Time;durP1;ratioP1;P1;durP2;ratioP2;P2;SDS_P1;SDS_P2;PMS_P1;PMS_P2;Temp;Humidity;BMP_temperature;BMP_pressure;BME280_temperature;BME280_humidity;BME280_pressure;Samples;Min_cycle;Max_cycle;Signal;HPM_P1;HPM_P2
2021/12/14 00:10:26;;;;;;;107.20;48.40;;;;;;;1.30;86.55;99702.08;212587;1330;25722;-76
2021/12/14 00:16:01;;;;;;;96.10;46.10;;;;;;;1.33;86.48;99695.98;213472;1327;22615;-76
2021/12/14 00:22:16;;;;;;;;;;;;;;;;;;;;;
2021/12/14 00:28:27;;;;;;;;;;;;;;;;;;;;;
2021/12/14 00:34:57;;;;;;;112.30;50.40;;;;;;;1.51;86.61;99709.39;213686;1327;24669;-74
2021/12/14 00:41:20;;;;;;;;;;;;;;;;;;;;;
2021/12/14 00:47:22;;;;;;;122.40;56.30;;;;;;;1.42;85.79;99720.73;213530;1322;22594;-75
2021/12/14 00:53:37;;;;;;;114.50;52.40;;;;;;;1.34;85.89;99717.85;213345;1327;25332;-75
2021/12/14 01:00:33;;;;;;;127.00;55.70;;;;;;;1.34;86.23;99714.38;213158;1327;23062;-76
2021/12/14 01:07:13;;;;;;;115.90;51.70;;;;;;;1.37;86.05;99716.23;213475;1328;22742;-76
2021/12/14 01:13:53;;;;;;;110.00;49.90;;;;;;;1.38;86.12;99715.05;213468;1324;25397;-74
2021/12/14 01:20:12;;;;;;;130.10;58.30;;;;;;;1.36;85.94;99720.20;213648;1323;22604;-75
2021/12/14 01:26:48;;;;;;;;;;;;;;;;;;;;;
2021/12/14 01:33:18;;;;;;;;;;;;;;;;;;;;;
2021/12/14 01:39:48;;;;;;;122.20;55.10;;;;;;;1.35;85.99;99714.21;214008;1322;25023;-74
2021/12/14 01:45:20;;;;;;;129.40;57.50;;;;;;;1.33;85.96;99711.92;214283;1321;25319;-74
2021/12/14 01:51:25;;;;;;;171.40;74.70;;;;;;;1.30;85.96;99705.73;214147;1321;25256;-74
2021/12/14 01:58:00;;;;;;;168.60;71.00;;;;;;;1.25;85.90;99700.44;213990;1321;22717;-76
2021/12/14 02:04:14;;;;;;;;;;;;;;;;;;;;;
2021/12/14 02:11:06;;;;;;;;;;;;;;;;;;;;;
2021/12/14 02:17:33;;;;;;;104.30;49.00;;;;;;;1.19;86.09;99699.95;214022;1320;25367;-75
2021/12/14 02:23:34;;;;;;;106.80;49.00;;;;;;;1.10;85.91;99703.41;213163;1325;22571;-76
2021/12/14 02:30:22;;;;;;;127.60;57.70;;;;;;;1.01;86.00;99706.17;212677;1328;22663;-76
2021/12/14 02:36:57;;;;;;;126.90;58.00;;;;;;;0.98;85.89;99705.93;213030;1329;22726;-75
2021/12/14 02:42:34;;;;;;;116.00;55.70;;;;;;;0.98;86.23;99699.06;213084;1325;22683;-75
2021/12/14 02:48:22;;;;;;;116.00;54.10;;;;;;;0.99;86.33;99700.61;213403;1326;25532;-76
2021/12/14 02:54:53;;;;;;;;;;;;;;;0.95;86.21;99704.55;213299;1327;22678;-74
2021/12/14 03:01:04;;;;;;;;;;;;;;;;;;;;;
2021/12/14 03:07:12;;;;;;;;;;;;;;;;;;;;;
2021/12/14 03:13:00;;;;;;;116.40;50.50;;;;;;;1.08;86.80;99713.48;213157;1325;25688;-75
2021/12/14 03:19:27;;;;;;;;;;;;;;;;;;;;;
2021/12/14 03:25:36;;;;;;;95.80;43.90;;;;;;;1.13;86.74;99713.27;213757;1323;24336;-74
2021/12/14 03:31:51;;;;;;;88.20;41.20;;;;;;;1.20;86.63;99708.66;213825;1323;25563;-76
2021/12/14 03:38:05;;;;;;;88.00;43.40;;;;;;;1.21;86.67;99715.23;213467;1328;23131;-75
2021/12/14 03:44:49;;;;;;;;;;;;;;;;;;;;;
2021/12/14 03:51:18;;;;;;;166.40;66.40;;;;;;;1.33;87.05;99717.01;213054;1327;23449;-69
2021/12/14 04:03:43;;;;;;;;;;;;;;;;;;;;;
2021/12/14 04:10:03;;;;;;;165.70;70.70;;;;;;;1.48;86.80;99712.29;213489;1326;22656;-75
2021/12/14 04:16:18;;;;;;;175.90;70.00;;;;;;;1.31;85.79;99702.77;213487;1326;23042;-75
2021/12/14 04:23:11;;;;;;;;;;;;;;;;;;;;;
2021/12/14 04:29:33;;;;;;;166.70;67.00;;;;;;;1.15;86.25;99704.15;213092;1325;22736;-76
2021/12/14 04:35:42;;;;;;;;;;;;;;;1.16;86.20;99702.81;213650;1325;25333;-75
2021/12/14 04:53:49;;;;;;;191.20;74.10;;;;;;;0.91;86.11;99706.61;213591;1325;26443;-76
2021/12/14 04:59:49;;;;;;;168.60;71.50;;;;;;;0.96;86.62;99711.26;213514;1326;22773;-76
2021/12/14 05:06:18;;;;;;;177.60;72.10;;;;;;;0.93;86.54;99718.15;213557;1323;22564;-75
2021/12/14 05:12:22;;;;;;;204.20;78.10;;;;;;;0.84;86.50;99711.69;213607;1323;22616;-76
2021/12/14 05:18:00;;;;;;;199.80;76.70;;;;;;;0.78;86.64;99707.77;213497;1324;25382;-74
2021/12/14 05:23:49;;;;;;;;;;;;;;;;;;;;;
2021/12/14 05:29:34;;;;;;;189.20;77.50;;;;;;;0.80;86.71;99688.39;213612;1322;22603;-75
2021/12/14 05:35:23;;;;;;;174.90;74.30;;;;;;;0.86;87.36;99690.26;208177;1325;7857367;-74
2021/12/14 05:47:25;;;;;;;178.00;69.20;;;;;;;0.97;86.96;99688.07;213802;1324;22654;-76
2021/12/14 05:53:20;;;;;;;156.80;66.50;;;;;;;0.98;87.26;99695.81;213457;1327;27310;-75
2021/12/14 05:58:37;;;;;;;182.00;76.40;;;;;;;1.04;87.32;99689.65;213083;1327;22593;-74
2021/12/14 06:04:46;;;;;;;;;;;;;;;;;;;;;
2021/12/14 06:10:58;;;;;;;177.20;67.00;;;;;;;0.93;86.99;99689.52;213536;1327;22603;-74
2021/12/14 06:17:05;;;;;;;;;;;;;;;;;;;;;
2021/12/14 06:23:13;;;;;;;;;;;;;;;;;;;;;
2021/12/14 06:29:23;;;;;;;126.90;51.30;;;;;;;0.99;87.03;99682.55;213654;1324;22808;-76
2021/12/14 06:35:20;;;;;;;145.40;56.70;;;;;;;0.97;87.19;99677.99;213491;1322;22718;-73
2021/12/14 06:41:19;;;;;;;158.20;64.50;;;;;;;0.96;87.13;99668.70;213646;1323;24402;-76
2021/12/14 06:46:46;;;;;;;156.00;62.90;;;;;;;1.00;87.04;99667.81;213917;1324;24335;-76
2021/12/14 06:52:34;;;;;;;138.90;57.40;;;;;;;1.03;87.03;99670.78;214593;1321;22574;-75
2021/12/14 06:58:33;;;;;;;153.20;60.20;;;;;;;1.06;87.20;99663.27;214204;1318;25298;-74
2021/12/14 07:04:28;;;;;;;;;;;;;;;;;;;;;
2021/12/14 07:10:54;;;;;;;;;;;;;;;;;;;;;
2021/12/14 07:16:39;;;;;;;138.00;57.40;;;;;;;1.52;87.34;99670.42;214213;1318;24231;-74
2021/12/14 07:22:32;;;;;;;137.70;61.90;;;;;;;1.59;87.29;99679.35;213920;1318;22594;-73
2021/12/14 07:28:16;;;;;;;145.00;63.60;;;;;;;1.75;87.81;99684.27;214253;1315;23114;-74
2021/12/14 07:33:29;;;;;;;134.20;58.10;;;;;;;1.93;87.85;99684.49;214367;1315;22600;-74
2021/12/14 07:39:28;;;;;;;132.50;55.00;;;;;;;2.06;87.69;99682.86;214500;1315;23727;-75
2021/12/14 07:44:44;;;;;;;122.20;55.30;;;;;;;2.11;87.29;99688.52;212594;1327;25299;-74
2021/12/14 07:50:59;;;;;;;126.70;55.30;;;;;;;2.12;86.46;99686.85;212794;1324;24336;-74
2021/12/14 07:57:09;;;;;;;119.80;53.70;;;;;;;2.12;86.88;99689.09;212813;1324;23059;-74
2021/12/14 08:03:33;;;;;;;;;;;;;;;;;;;;;
2021/12/14 08:09:33;;;;;;;143.90;61.60;;;;;;;2.58;87.06;99681.04;213555;1321;22606;-74
2021/12/14 08:15:05;;;;;;;102.80;46.70;;;;;;;2.84;87.27;99692.09;214019;1315;25312;-74
2021/12/14 08:20:23;;;;;;;96.10;45.10;;;;;;;3.01;86.42;99700.15;214122;1315;22568;-73
2021/12/14 08:25:30;;;;;;;102.70;48.80;;;;;;;3.09;86.03;99700.75;213869;1317;22633;-74
2021/12/14 08:30:38;;;;;;;113.60;48.40;;;;;;;3.10;85.80;99696.58;213868;1316;22682;-73
2021/12/14 08:36:36;;;;;;;114.30;49.60;;;;;;;3.08;85.91;99686.45;214122;1315;22609;-75
2021/12/14 08:42:12;;;;;;;98.10;44.50;;;;;;;3.28;86.60;99676.66;213781;1316;24337;-74
2021/12/14 08:47:43;;;;;;;;;;;;;;;3.40;86.07;99677.48;214089;1316;22549;-72
2021/12/14 08:52:50;;;;;;;107.10;50.30;;;;;;;3.50;85.79;99688.69;214384;1316;24139;-74
2021/12/14 08:58:13;;;;;;;107.60;52.00;;;;;;;3.53;85.61;99682.95;214206;1316;25013;-73
2021/12/14 09:03:56;;;;;;;102.70;48.80;;;;;;;3.79;86.70;99674.76;214188;1316;25591;-73
2021/12/14 09:09:13;;;;;;;92.70;43.30;;;;;;;4.15;86.79;99669.23;213873;1318;22592;-73
2021/12/14 09:15:08;;;;;;;96.80;46.50;;;;;;;4.39;85.57;99663.98;214011;1316;24256;-74
2021/12/14 09:20:35;;;;;;;106.00;46.50;;;;;;;4.29;84.98;99661.68;214270;1317;25342;-74
2021/12/14 09:25:53;;;;;;;122.70;51.20;;;;;;;4.43;85.91;99658.77;215167;1315;22631;-73
2021/12/14 09:31:40;;;;;;;125.60;54.80;;;;;;;4.36;84.83;99656.41;214088;1316;24387;-75
2021/12/14 09:36:42;;;;;;;113.80;49.70;;;;;;;4.10;84.87;99651.06;213994;1316;22576;-73
2021/12/14 09:41:56;;;;;;;111.30;47.80;;;;;;;4.04;85.13;99646.23;213949;1315;25403;-73
2021/12/14 09:47:15;;;;;;;111.00;47.70;;;;;;;4.00;84.71;99644.91;214262;1316;23255;-73
2021/12/14 09:52:48;;;;;;;120.00;48.70;;;;;;;4.01;85.34;99643.59;213803;1317;25386;-73
2021/12/14 09:58:18;;;;;;;114.00;47.70;;;;;;;4.06;84.78;99647.40;214165;1316;24251;-74
2021/12/14 10:03:24;;;;;;;111.50;48.90;;;;;;;3.76;83.37;99648.33;214009;1316;24311;-75
2021/12/14 10:08:48;;;;;;;93.60;47.40;;;;;;;3.52;83.79;99646.88;213943;1316;24250;-76
2021/12/14 10:13:57;;;;;;;101.90;46.30;;;;;;;3.39;84.36;99642.39;213936;1316;22991;-75
2021/12/14 10:19:24;;;;;;;112.00;47.40;;;;;;;3.56;85.96;99643.95;213984;1316;22635;-75
2021/12/14 10:24:48;;;;;;;102.50;46.50;;;;;;;3.76;85.41;99645.04;213987;1316;22618;-74
2021/12/14 10:29:59;;;;;;;126.00;53.10;;;;;;;3.67;84.24;99636.58;214055;1316;22596;-74
2021/12/14 10:35:23;;;;;;;126.90;54.00;;;;;;;3.67;84.74;99629.77;214315;1315;25269;-74
2021/12/14 10:46:58;;;;;;;126.30;54.90;;;;;;;4.13;86.15;99620.05;214049;1316;22984;-74
2021/12/14 10:52:45;;;;;;;;;;;;;;;;;;;;;
2021/12/14 10:58:37;;;;;;;;;;;;;;;;;;;;;
2021/12/14 11:04:07;;;;;;;123.70;52.80;;;;;;;4.55;85.58;99612.10;214070;1316;25390;-75
2021/12/14 11:16:20;;;;;;;113.40;52.40;;;;;;;4.64;84.45;99602.28;213640;1315;22555;-76
2021/12/14 11:21:40;;;;;;;106.80;47.60;;;;;;;4.55;84.15;99600.80;214688;1315;25518;-74
2021/12/14 11:27:13;;;;;;;;;;;;;;;;;;;;;
2021/12/14 11:32:22;;;;;;;112.60;48.00;;;;;;;4.24;83.17;99600.19;214163;1316;22707;-75
2021/12/14 11:38:02;;;;;;;;;;;;;;;;;;;;;
2021/12/14 11:43:30;;;;;;;121.40;51.70;;;;;;;4.17;84.72;99608.83;214165;1320;23040;-71
2021/12/14 11:55:33;;;;;;;125.70;52.20;;;;;;;4.52;85.23;99596.68;214263;1316;23455;-75
2021/12/14 12:00:31;;;;;;;117.60;51.20;;;;;;;4.64;84.93;99590.40;213810;1315;25347;-74
2021/12/14 12:06:05;;;;;;;113.90;50.70;;;;;;;4.71;85.05;99590.23;213886;1318;22591;-75
2021/12/14 12:11:35;;;;;;;129.90;57.90;;;;;;;4.77;85.00;99582.76;214060;1315;22676;-75
2021/12/14 12:16:41;;;;;;;112.80;51.10;;;;;;;4.82;85.15;99580.83;213965;1316;25438;-76
2021/12/14 12:22:22;;;;;;;;;;;;;;;;;;;;;
2021/12/14 12:28:04;;;;;;;104.40;47.90;;;;;;;4.62;84.16;99574.06;214151;1315;22578;-74
2021/12/14 12:34:05;;;;;;;99.10;46.40;;;;;;;4.64;84.89;99574.70;214046;1320;22765;-76
2021/12/14 12:39:29;;;;;;;104.60;44.30;;;;;;;4.68;84.94;99576.95;212882;1318;22627;-74
2021/12/14 12:52:26;;;;;;;;;;;;;;;;;;;;;
2021/12/14 12:58:37;;;;;;;87.10;40.10;;;;;;;4.84;85.12;99578.39;212854;1323;25268;-75
2021/12/14 13:04:08;;;;;;;86.00;42.60;;;;;;;4.82;84.50;99579.45;214532;1315;25310;-76
2021/12/14 13:10:02;;;;;;;79.40;39.40;;;;;;;4.76;84.15;99575.19;214270;1322;22586;-76
2021/12/14 13:16:21;;;;;;;83.60;41.00;;;;;;;4.45;83.06;99579.16;213993;1318;24273;-76
2021/12/14 13:21:56;;;;;;;93.80;43.90;;;;;;;4.19;84.22;99566.06;213983;1316;23090;-76
2021/12/14 13:27:24;;;;;;;102.80;43.90;;;;;;;4.16;84.78;99563.27;213981;1316;25524;-76
2021/12/14 13:32:47;;;;;;;112.40;47.90;;;;;;;4.19;85.17;99562.40;213919;1317;25256;-75
2021/12/14 13:38:08;;;;;;;98.30;47.00;;;;;;;4.24;85.25;99570.48;206294;1316;10369683;-76
2021/12/14 13:43:49;;;;;;;111.80;50.40;;;;;;;4.22;85.17;99572.23;214046;1316;25231;-76
2021/12/14 13:49:25;;;;;;;104.00;46.80;;;;;;;4.17;84.96;99578.99;213956;1317;23661;-76
2021/12/14 13:55:30;;;;;;;111.60;50.50;;;;;;;3.99;84.59;99575.61;213935;1316;24344;-75
2021/12/14 14:01:16;;;;;;;120.50;51.90;;;;;;;3.87;85.03;99567.38;214156;1319;25190;-75
2021/12/14 14:07:01;;;;;;;108.50;49.60;;;;;;;3.90;85.46;99566.02;213128;1321;24266;-76
2021/12/14 14:12:14;;;;;;;98.50;46.30;;;;;;;3.89;85.43;99566.25;213645;1322;22609;-76
2021/12/14 14:17:29;;;;;;;104.10;45.30;;;;;;;3.80;85.12;99568.45;213491;1322;22581;-75
2021/12/14 14:23:03;;;;;;;95.80;43.90;;;;;;;3.62;84.65;99570.60;213178;1321;22609;-77
2021/12/14 14:29:01;;;;;;;99.80;42.50;;;;;;;3.41;84.77;99567.21;213586;1326;24701;-76
2021/12/14 14:34:45;;;;;;;;;;;;;;;;;;;;;
2021/12/14 14:39:54;;;;;;;96.70;43.20;;;;;;;3.26;85.26;99575.52;213507;1321;22650;-75
2021/12/14 14:45:31;;;;;;;96.60;44.90;;;;;;;3.21;85.33;99581.32;213818;1318;22570;-75
2021/12/14 14:50:43;;;;;;;110.30;46.80;;;;;;;3.20;85.63;99588.58;214083;1316;23011;-75
2021/12/14 14:56:16;;;;;;;105.20;47.40;;;;;;;3.24;85.96;99587.48;214008;1316;22574;-74
2021/12/14 15:01:27;;;;;;;101.50;47.20;;;;;;;3.35;86.42;99596.25;214336;1317;26418;-75
2021/12/14 15:06:50;;;;;;;117.20;50.10;;;;;;;3.35;85.88;99611.80;213840;1318;25392;-76
2021/12/14 15:12:04;;;;;;;110.70;50.20;;;;;;;3.40;86.45;99595.27;213561;1316;22861;-77
2021/12/14 15:17:17;;;;;;;106.80;48.80;;;;;;;3.45;86.57;99601.55;213892;1316;25265;-75
2021/12/14 15:23:20;;;;;;;128.90;52.10;;;;;;;3.47;86.64;99600.61;213969;1316;22614;-76
2021/12/14 15:28:38;;;;;;;121.10;49.50;;;;;;;3.47;86.54;99603.05;214065;1316;22606;-76
2021/12/14 15:34:31;;;;;;;;;;;;;;;;;;;;;
2021/12/14 15:41:20;;;;;;;125.60;53.90;;;;;;;3.48;86.85;99595.65;213748;1323;22611;-76
2021/12/14 15:47:30;;;;;;;137.60;59.20;;;;;;;3.55;86.83;99594.15;213767;1324;22620;-76
2021/12/14 15:54:07;;;;;;;;;;;;;;;;;;;;;
2021/12/14 15:59:48;;;;;;;128.40;55.20;;;;;;;3.67;86.70;99599.63;212870;1327;23423;-76
2021/12/14 16:05:52;;;;;;;123.40;56.00;;;;;;;3.71;86.82;99603.17;212908;1329;22712;-77
2021/12/14 16:11:20;;;;;;;125.80;53.90;;;;;;;3.74;87.19;99597.97;213652;1324;22610;-78
2021/12/14 16:23:16;;;;;;;128.30;55.30;;;;;;;3.71;86.94;99603.41;213810;1322;22612;-75
2021/12/14 16:29:49;;;;;;;142.50;56.70;;;;;;;3.75;87.02;99604.42;213841;1324;24738;-77
2021/12/14 16:35:02;;;;;;;127.80;55.90;;;;;;;3.81;87.23;99602.73;213719;1322;22634;-77
2021/12/14 16:40:44;;;;;;;113.80;51.10;;;;;;;3.82;86.79;99610.75;213949;1322;24468;-76
2021/12/14 16:47:22;;;;;;;;;;;;;;;;;;;;;
2021/12/14 16:53:28;;;;;;;138.40;55.70;;;;;;;3.54;86.11;99617.08;213665;1324;22854;-76
2021/12/14 17:00:02;;;;;;;127.40;55.20;;;;;;;3.47;86.27;99615.19;213451;1327;23833;-76
2021/12/14 17:05:41;;;;;;;;;;;;;;;;;;;;;
2021/12/14 17:12:15;;;;;;;141.60;60.30;;;;;;;3.33;86.10;99624.35;213422;1327;22659;-76
2021/12/14 17:19:06;;;;;;;153.30;64.60;;;;;;;3.25;86.04;99619.58;212725;1327;22621;-75
2021/12/14 17:25:25;;;;;;;153.80;66.80;;;;;;;3.29;86.81;99617.46;212820;1328;22660;-77
2021/12/14 17:30:48;;;;;;;;;;;;;;;;;;;;;
2021/12/14 17:37:09;;;;;;;;;;;;;;;;;;;;;
2021/12/14 17:42:38;;;;;;;192.10;78.20;;;;;;;3.09;86.39;99618.18;213592;1319;22650;-75
2021/12/14 17:48:36;;;;;;;191.50;81.40;;;;;;;3.06;86.65;99625.30;213399;1327;25545;-77
2021/12/14 17:53:57;;;;;;;188.10;78.70;;;;;;;3.04;86.65;99631.02;213788;1322;22644;-75
2021/12/14 17:59:47;;;;;;;177.00;80.40;;;;;;;3.03;86.80;99632.36;213799;1322;22600;-75
2021/12/14 18:05:49;;;;;;;183.60;72.80;;;;;;;3.02;87.05;99637.31;213557;1326;24409;-76
2021/12/14 18:11:41;;;;;;;178.10;71.90;;;;;;;2.99;87.06;99644.78;213672;1325;22645;-76
2021/12/14 18:17:11;;;;;;;177.10;70.10;;;;;;;3.01;87.43;99645.38;213532;1325;22718;-76
2021/12/14 18:23:00;;;;;;;167.60;69.30;;;;;;;3.01;87.32;99648.18;213630;1322;25428;-76
2021/12/14 18:28:19;;;;;;;175.10;71.10;;;;;;;2.96;87.28;99652.42;213767;1324;22648;-77
2021/12/14 18:33:25;;;;;;;177.70;72.00;;;;;;;2.97;87.65;99652.30;213616;1325;25455;-76
2021/12/14 18:38:42;;;;;;;178.40;69.60;;;;;;;3.05;87.79;99656.46;213692;1324;22717;-75
2021/12/14 18:44:51;;;;;;;;;;;;;;;;;;;;;
2021/12/14 18:56:24;;;;;;;160.00;62.40;;;;;;;3.18;87.68;99655.48;213754;1325;22726;-76
2021/12/14 19:01:56;;;;;;;153.50;61.10;;;;;;;3.16;87.57;99656.89;213732;1325;22632;-75
2021/12/14 19:07:34;;;;;;;181.20;75.70;;;;;;;3.10;87.64;99653.11;214066;1323;25252;-75
2021/12/14 19:13:17;;;;;;;192.90;77.20;;;;;;;3.03;87.53;99652.48;214096;1325;26142;-75
2021/12/14 19:18:38;;;;;;;227.60;92.10;;;;;;;3.02;87.64;99670.86;213873;1322;22729;-75
2021/12/14 19:24:07;;;;;;;248.60;103.20;;;;;;;3.05;87.96;99665.95;213590;1325;23374;-76
2021/12/14 19:29:58;;;;;;;243.00;104.70;;;;;;;3.13;88.36;99674.48;213656;1324;22597;-75
2021/12/14 19:35:35;;;;;;;300.70;123.90;;;;;;;3.14;88.10;99680.25;213633;1322;24307;-76
2021/12/14 19:41:34;;;;;;;;;;;;;;;;;;;;;
2021/12/14 19:47:38;;;;;;;236.40;100.30;;;;;;;3.15;87.94;99693.52;213488;1324;22525;-76
2021/12/14 19:53:10;;;;;;;217.80;92.80;;;;;;;3.23;88.44;99695.08;213788;1325;22590;-76
2021/12/14 19:59:25;;;;;;;199.00;82.40;;;;;;;3.28;88.14;99692.68;213615;1324;25530;-76
2021/12/14 20:05:01;;;;;;;;;;;;;;;3.22;87.99;99692.40;213581;1323;22564;-75
2021/12/14 20:10:15;;;;;;;174.70;72.40;;;;;;;3.20;88.40;99695.11;213546;1325;22665;-75
2021/12/14 20:15:54;;;;;;;202.40;79.70;;;;;;;3.14;88.13;99696.27;213681;1319;22776;-74
2021/12/14 20:21:46;;;;;;;;;;;;;;;;;;;;;
2021/12/14 20:27:40;;;;;;;186.00;73.40;;;;;;;2.97;88.08;99707.96;214010;1322;24842;-75
2021/12/14 20:32:49;;;;;;;163.40;71.70;;;;;;;3.02;88.52;99716.07;213658;1322;24141;-76
2021/12/14 20:37:58;;;;;;;171.00;72.30;;;;;;;3.08;88.73;99725.60;213535;1324;24347;-75
2021/12/14 20:48:35;;;;;;;157.60;71.00;;;;;;;3.20;88.78;99732.21;213508;1324;22737;-75
2021/12/14 20:53:50;;;;;;;152.60;67.20;;;;;;;3.22;88.60;99736.93;213684;1323;24536;-75
2021/12/14 20:59:30;;;;;;;134.40;63.10;;;;;;;3.21;88.45;99736.70;213715;1324;25502;-75
2021/12/14 21:04:46;;;;;;;126.20;56.60;;;;;;;3.18;88.36;99732.38;213554;1319;22689;-74
2021/12/14 21:09:53;;;;;;;113.20;52.20;;;;;;;3.14;88.48;99736.80;213352;1324;22790;-75
2021/12/14 21:15:22;;;;;;;124.00;53.50;;;;;;;3.04;88.22;99734.21;213668;1324;22647;-75
2021/12/14 21:20:48;;;;;;;112.50;53.70;;;;;;;3.00;88.27;99743.98;213583;1323;25341;-75
2021/12/14 21:26:02;;;;;;;124.20;55.40;;;;;;;2.97;88.38;99746.98;213425;1324;22579;-75
2021/12/14 21:31:44;;;;;;;119.60;53.70;;;;;;;2.95;88.51;99746.61;213662;1325;22735;-74
2021/12/14 21:38:23;;;;;;;124.60;57.50;;;;;;;2.92;88.46;99743.13;213640;1324;473362;-76
2021/12/14 21:50:07;;;;;;;115.20;54.10;;;;;;;2.73;88.26;99744.36;213598;1323;22594;-75
2021/12/14 21:56:19;;;;;;;126.30;55.60;;;;;;;2.70;88.53;99746.25;213524;1324;22607;-74
2021/12/14 22:01:35;;;;;;;;;;;;;;;;;;;;;
2021/12/14 22:07:18;;;;;;;111.00;50.60;;;;;;;2.72;88.96;99755.30;213664;1325;24174;-75
2021/12/14 22:13:12;;;;;;;100.10;47.50;;;;;;;2.78;89.11;99756.09;213540;1324;22602;-75
2021/12/14 22:18:52;;;;;;;;;;;;;;;;;;;;;
2021/12/14 22:25:06;;;;;;;94.40;44.20;;;;;;;2.78;89.16;99755.93;213513;1324;25255;-73
2021/12/14 22:31:03;;;;;;;82.20;38.20;;;;;;;2.76;88.88;99751.98;213525;1319;26413;-76
2021/12/14 22:36:13;;;;;;;85.30;41.30;;;;;;;2.74;89.10;99750.61;213467;1324;24401;-74
2021/12/14 22:41:48;;;;;;;85.00;39.80;;;;;;;2.72;89.09;99749.09;213736;1324;24310;-75
2021/12/14 22:47:10;;;;;;;81.00;41.20;;;;;;;2.74;89.41;99753.55;213442;1325;22590;-75
2021/12/14 22:52:34;;;;;;;85.40;39.20;;;;;;;2.80;89.74;99746.64;213837;1321;22660;-74
2021/12/14 22:58:37;;;;;;;96.20;40.20;;;;;;;2.85;89.53;99745.38;213544;1324;22590;-75
2021/12/14 23:03:54;;;;;;;82.60;37.10;;;;;;;2.95;89.89;99755.66;213642;1324;22750;-75
2021/12/14 23:09:30;;;;;;;81.90;36.70;;;;;;;3.02;89.70;99755.09;213374;1324;24318;-75
2021/12/14 23:15:08;;;;;;;75.00;36.70;;;;;;;3.07;89.68;99757.38;213511;1323;22728;-75
2021/12/14 23:20:14;;;;;;;75.40;34.70;;;;;;;3.06;89.59;99753.64;213861;1320;23127;-75
2021/12/14 23:25:50;;;;;;;81.40;38.00;;;;;;;3.02;89.45;99757.90;213384;1325;22598;-74
2021/12/14 23:31:27;;;;;;;81.60;39.10;;;;;;;3.00;89.34;99756.56;213657;1320;22573;-75
2021/12/14 23:37:06;;;;;;;77.40;36.60;;;;;;;2.99;89.46;99748.87;213647;1320;22756;-76
2021/12/14 23:42:54;;;;;;;66.20;34.50;;;;;;;3.01;89.39;99753.63;213602;1324;22603;-75
2021/12/14 23:48:12;;;;;;;72.80;34.50;;;;;;;3.00;89.79;99748.79;213631;1325;24261;-76
2021/12/14 23:53:37;;;;;;;81.20;36.20;;;;;;;3.01;89.81;99749.88;213478;1323;22728;-75
2021/12/14 23:59:25;;;;;;;72.40;35.00;;;;;;;2.97;89.69;99754.71;213575;1324;24284;-74
